Time;durP1;ratioP1;P1;durP2;ratioP2;P2;SDS_P1;SDS_P2;PMS_P1;PMS_P2;Temp;Humidity;BMP_temperature;BMP_pressure;BME280_temperature;BME280_humidity;BME280_pressure;Samples;Min_cycle;Max_cycle;Signal;HPM_P1;HPM_P2
2021/12/31 00:00:50;;;;;;;12.20;3.15;;;;;;;13.21;85.48;101587.09;5113306;28;20162;-67
2021/12/31 00:03:17;;;;;;;13.90;3.42;;;;;;;13.14;85.52;101583.34;5112141;28;20036;-67
2021/12/31 00:05:44;;;;;;;14.25;3.25;;;;;;;13.19;84.92;101583.75;5113482;28;20561;-67
2021/12/31 00:08:11;;;;;;;14.25;3.47;;;;;;;13.21;85.21;101585.25;5093648;28;20489;-67
2021/12/31 00:10:40;;;;;;;11.07;3.47;;;;;;;13.25;84.15;101583.97;5112450;28;20078;-67
2021/12/31 00:13:06;;;;;;;10.55;2.90;;;;;;;13.22;84.20;101575.44;5112665;28;20043;-67
2021/12/31 00:15:33;;;;;;;10.85;3.13;;;;;;;13.26;84.24;101576.81;5094839;28;20039;-67
2021/12/31 00:18:00;;;;;;;14.50;3.25;;;;;;;13.21;84.56;101581.78;5113255;28;20044;-67
2021/12/31 00:20:27;;;;;;;11.80;3.00;;;;;;;13.13;84.04;101581.66;5112348;28;20047;-67
2021/12/31 00:25:36;;;;;;;14.60;3.17;;;;;;;13.21;84.01;101571.13;5069631;27;20957;-65
2021/12/31 00:28:05;;;;;;;13.98;3.42;;;;;;;13.22;83.68;101578.09;5062942;28;20041;-66
2021/12/31 00:30:32;;;;;;;11.85;3.08;;;;;;;13.15;83.36;101574.34;5059779;28;20555;-66
2021/12/31 00:33:01;;;;;;;9.52;3.03;;;;;;;13.18;83.83;101569.56;5051634;28;20044;-66
2021/12/31 00:35:29;;;;;;;11.23;2.92;;;;;;;13.21;83.13;101573.78;5061908;28;20489;-66
2021/12/31 00:37:56;;;;;;;11.65;3.15;;;;;;;13.27;82.71;101567.84;5041426;28;20041;-66
2021/12/31 00:40:22;;;;;;;11.60;3.03;;;;;;;13.25;82.82;101565.31;5069189;28;20044;-66
2021/12/31 00:42:49;;;;;;;12.43;3.20;;;;;;;13.28;82.45;101568.66;5069110;28;20051;-66
2021/12/31 00:45:19;;;;;;;13.32;2.80;;;;;;;13.41;81.56;101566.50;5068758;28;20106;-66
2021/12/31 00:47:47;;;;;;;11.38;2.92;;;;;;;13.40;81.36;101552.31;5069180;28;20532;-66
2021/12/31 00:50:14;;;;;;;11.00;3.03;;;;;;;13.32;82.17;101560.25;5068890;28;20041;-67
2021/12/31 00:52:41;;;;;;;14.25;3.20;;;;;;;13.26;81.88;101558.16;5067675;28;20396;-66
2021/12/31 00:55:10;;;;;;;12.70;3.30;;;;;;;13.42;80.87;101562.84;5068481;28;20383;-66
2021/12/31 00:57:37;;;;;;;12.15;2.85;;;;;;;13.40;80.89;101562.97;5075772;28;20453;-66
2021/12/31 01:00:06;;;;;;;11.43;3.28;;;;;;;13.43;80.19;101562.69;5067508;28;20098;-66
2021/12/31 01:02:33;;;;;;;9.20;2.63;;;;;;;13.38;80.33;101561.47;5081029;28;20490;-66
2021/12/31 01:05:02;;;;;;;12.52;2.83;;;;;;;13.39;80.13;101569.31;5099134;28;20075;-66
2021/12/31 01:07:29;;;;;;;11.05;3.28;;;;;;;13.44;80.05;101569.72;5068452;28;20408;-66
2021/12/31 01:09:56;;;;;;;12.73;2.80;;;;;;;13.36;80.40;101571.44;5068516;28;20497;-66
2021/12/31 01:12:25;;;;;;;10.85;2.78;;;;;;;13.52;79.00;101568.94;5068659;28;20503;-66
2021/12/31 01:15:04;;;;;;;10.48;2.72;;;;;;;13.46;79.14;101569.53;5068104;28;20159;-67
2021/12/31 01:20:18;;;;;;;12.20;3.20;;;;;;;13.41;79.19;101572.66;5067327;28;20497;-68
2021/12/31 01:22:45;;;;;;;10.95;3.08;;;;;;;13.39;79.89;101569.31;5067097;28;20045;-66
2021/12/31 01:25:12;;;;;;;9.55;2.67;;;;;;;13.44;79.04;101572.38;5067821;28;20497;-67
2021/12/31 01:27:39;;;;;;;8.07;2.63;;;;;;;13.44;78.77;101577.69;5068433;28;20040;-67
2021/12/31 01:30:09;;;;;;;10.30;3.05;;;;;;;13.48;79.23;101574.72;5069337;28;20494;-66
2021/12/31 01:32:35;;;;;;;10.57;2.72;;;;;;;13.40;79.77;101572.81;5069934;28;20044;-66
2021/12/31 01:35:02;;;;;;;9.50;2.97;;;;;;;13.37;79.76;101576.63;5063213;28;20041;-66
2021/12/31 01:37:29;;;;;;;11.75;3.10;;;;;;;13.44;78.78;101575.03;5054831;28;20044;-66
2021/12/31 01:39:56;;;;;;;8.80;2.75;;;;;;;13.41;78.78;101578.00;5053529;28;20052;-67
2021/12/31 01:42:29;;;;;;;14.85;3.60;;;;;;;13.47;78.94;101573.88;5054980;28;20049;-67
2021/12/31 01:45:01;;;;;;;10.30;3.05;;;;;;;13.36;79.13;101564.28;5051244;28;20557;-67
2021/12/31 01:47:35;;;;;;;12.07;3.45;;;;;;;13.45;78.30;101570.53;5054666;28;20116;-67
2021/12/31 01:50:07;;;;;;;10.45;2.97;;;;;;;13.47;78.28;101568.56;5054271;28;20132;-67
2021/12/31 01:52:34;;;;;;;9.80;3.50;;;;;;;13.48;78.29;101580.03;5053542;28;20067;-66
2021/12/31 01:55:03;;;;;;;12.40;3.75;;;;;;;13.41;78.56;101575.34;5054641;28;20041;-67
2021/12/31 01:57:32;;;;;;;9.82;3.80;;;;;;;13.49;77.96;101558.56;5036904;28;20045;-66
2021/12/31 01:59:59;;;;;;;11.60;3.65;;;;;;;13.43;77.87;101569.84;5054203;28;20079;-67
2021/12/31 02:02:25;;;;;;;13.85;3.97;;;;;;;13.40;77.97;101562.97;5053255;28;20079;-67
2021/12/31 02:04:57;;;;;;;9.63;3.70;;;;;;;13.41;78.11;101562.00;5034714;28;20489;-67
2021/12/31 02:07:24;;;;;;;13.75;4.05;;;;;;;13.35;79.10;101565.28;5054284;28;20114;-67
2021/12/31 02:09:54;;;;;;;9.10;3.60;;;;;;;13.40;78.44;101576.31;5054289;28;20091;-67
2021/12/31 02:12:22;;;;;;;13.63;4.03;;;;;;;13.58;77.54;101570.97;5054072;28;20127;-66
2021/12/31 02:14:51;;;;;;;12.00;3.92;;;;;;;13.54;76.89;101566.94;5016925;28;20197;-65
2021/12/31 02:17:19;;;;;;;8.98;3.60;;;;;;;13.46;77.30;101574.84;5036440;28;20045;-66
2021/12/31 02:19:56;;;;;;;10.75;3.58;;;;;;;13.44;77.69;101572.38;5052800;28;20041;-66
2021/12/31 02:22:27;;;;;;;16.90;4.13;;;;;;;13.38;78.18;101570.28;5035416;28;20545;-66
2021/12/31 02:24:56;;;;;;;11.77;4.10;;;;;;;13.43;78.05;101573.34;5035462;28;20049;-66
2021/12/31 02:27:24;;;;;;;11.48;4.28;;;;;;;13.47;77.90;101571.22;5033737;28;20045;-66
2021/12/31 02:29:51;;;;;;;10.18;3.85;;;;;;;13.47;77.22;101568.56;5052403;28;20409;-66
2021/12/31 02:32:18;;;;;;;10.73;3.72;;;;;;;13.50;77.41;101572.72;5036654;28;20052;-66
2021/12/31 02:34:46;;;;;;;13.02;4.03;;;;;;;13.39;78.16;101569.31;5054071;28;20124;-67
2021/12/31 02:37:14;;;;;;;9.70;3.90;;;;;;;13.51;78.00;101567.25;5050712;28;20115;-66
2021/12/31 02:39:42;;;;;;;10.93;4.07;;;;;;;13.44;78.31;101571.50;5019969;28;20048;-66
2021/12/31 02:42:11;;;;;;;15.82;3.80;;;;;;;13.41;77.71;101571.84;5054123;28;20502;-68
2021/12/31 02:44:38;;;;;;;10.60;3.80;;;;;;;13.35;78.04;101565.28;5036446;28;20041;-68
2021/12/31 02:47:06;;;;;;;11.55;3.40;;;;;;;13.37;77.76;101563.31;5035477;28;20049;-68
2021/12/31 02:49:38;;;;;;;11.88;3.50;;;;;;;13.38;77.73;101564.97;5053917;28;20041;-68
2021/12/31 02:52:08;;;;;;;11.88;3.20;;;;;;;13.41;76.67;101556.69;5052925;28;20418;-68
2021/12/31 02:54:37;;;;;;;14.35;3.00;;;;;;;13.43;76.60;101552.03;5053903;28;20120;-68
2021/12/31 02:57:06;;;;;;;10.82;3.33;;;;;;;13.35;76.96;101554.63;5052761;28;20045;-68
2021/12/31 02:59:34;;;;;;;12.07;2.95;;;;;;;13.56;76.22;101558.81;5053777;28;20037;-66
2021/12/31 03:02:03;;;;;;;11.30;2.85;;;;;;;13.51;76.31;101555.75;5052422;28;20041;-68
2021/12/31 03:04:31;;;;;;;9.80;2.67;;;;;;;13.54;76.03;101555.47;5051603;28;20033;-67
2021/12/31 03:06:59;;;;;;;12.40;2.85;;;;;;;13.48;76.55;101564.91;5052508;28;20047;-66
2021/12/31 03:09:26;;;;;;;10.52;2.78;;;;;;;13.69;75.15;101566.41;5052415;28;20095;-66
2021/12/31 03:11:56;;;;;;;7.90;2.60;;;;;;;13.61;75.97;101562.69;5019636;28;20045;-66
2021/12/31 03:14:25;;;;;;;10.35;2.67;;;;;;;13.67;75.27;101560.41;5053508;28;20037;-66
2021/12/31 03:16:53;;;;;;;10.30;2.63;;;;;;;13.65;75.34;101560.53;5052077;28;20033;-67
2021/12/31 03:19:21;;;;;;;9.85;2.35;;;;;;;13.70;74.97;101560.06;5053343;28;20505;-67
2021/12/31 03:21:47;;;;;;;8.98;2.60;;;;;;;13.61;75.72;101560.00;5053408;28;20591;-67
2021/12/31 03:24:14;;;;;;;8.50;2.50;;;;;;;13.73;74.40;101551.75;5051900;28;20041;-67
2021/12/31 03:26:41;;;;;;;8.63;2.50;;;;;;;13.71;74.81;101554.59;5035587;28;20401;-67
2021/12/31 03:29:07;;;;;;;6.05;2.40;;;;;;;13.61;75.65;101559.19;5035557;28;20041;-67
2021/12/31 03:31:34;;;;;;;12.60;2.72;;;;;;;13.70;74.53;101554.72;5052961;28;20036;-67
2021/12/31 03:34:01;;;;;;;10.00;2.60;;;;;;;13.64;74.89;101561.53;5051514;28;20095;-68
2021/12/31 03:36:28;;;;;;;10.57;2.72;;;;;;;13.67;74.75;101563.88;5052824;28;20049;-66
2021/12/31 03:38:54;;;;;;;7.78;2.80;;;;;;;13.71;74.80;101551.91;5035579;28;20049;-66
2021/12/31 03:41:21;;;;;;;9.88;2.83;;;;;;;13.65;75.16;101549.88;5054000;28;20040;-66
2021/12/31 03:43:48;;;;;;;8.57;2.72;;;;;;;13.55;75.29;101549.13;5056102;28;20867;-66
2021/12/31 03:46:15;;;;;;;8.10;2.72;;;;;;;13.50;76.14;101540.75;5031256;28;20041;-66
2021/12/31 03:48:42;;;;;;;11.38;3.00;;;;;;;13.62;76.15;101531.50;5035348;28;20072;-66
2021/12/31 03:51:08;;;;;;;8.18;2.70;;;;;;;13.43;76.53;101529.88;5051521;28;20048;-66
2021/12/31 03:53:35;;;;;;;10.13;3.05;;;;;;;13.49;76.55;101536.41;5046504;28;20045;-66
2021/12/31 03:56:02;;;;;;;9.38;3.05;;;;;;;13.46;76.99;101542.03;5051668;28;20033;-66
2021/12/31 03:58:29;;;;;;;10.82;3.20;;;;;;;13.53;76.13;101535.13;5051028;28;20063;-66
2021/12/31 04:00:56;;;;;;;8.88;3.17;;;;;;;13.53;75.78;101527.94;5052727;28;20036;-66
2021/12/31 04:03:23;;;;;;;7.40;3.33;;;;;;;13.58;75.84;101530.16;5052339;28;20409;-66
2021/12/31 04:05:50;;;;;;;11.02;3.35;;;;;;;13.43;76.48;101528.03;5051157;28;20509;-66
2021/12/31 04:08:18;;;;;;;10.05;3.58;;;;;;;13.47;76.29;101533.91;5051274;28;20428;-66
2021/12/31 04:10:45;;;;;;;9.45;3.30;;;;;;;13.35;76.98;101527.13;5051511;28;20053;-67
2021/12/31 04:13:12;;;;;;;9.20;3.40;;;;;;;13.34;77.57;101528.13;5052166;28;20048;-66
2021/12/31 04:15:38;;;;;;;9.93;3.22;;;;;;;13.35;76.95;101543.13;5051423;28;20106;-66
2021/12/31 04:18:06;;;;;;;8.52;2.80;;;;;;;13.27;77.51;101530.53;5084700;28;20041;-66
2021/12/31 04:20:39;;;;;;;7.93;2.70;;;;;;;13.28;77.16;101531.34;5018556;28;20410;-66
2021/12/31 04:23:25;;;;;;;11.35;3.10;;;;;;;13.20;78.21;101524.97;5051578;28;20485;-66
2021/12/31 04:25:52;;;;;;;9.63;2.72;;;;;;;13.27;77.25;101525.19;5051212;28;20032;-66
2021/12/31 04:28:19;;;;;;;7.68;2.42;;;;;;;13.19;77.59;101533.97;5052493;28;20041;-66
2021/12/31 04:30:46;;;;;;;12.85;3.00;;;;;;;13.31;76.96;101526.59;5033282;28;20163;-66
2021/12/31 04:33:12;;;;;;;9.35;2.70;;;;;;;13.31;77.66;101520.44;5050909;28;20045;-66
2021/12/31 04:35:39;;;;;;;12.48;2.67;;;;;;;13.35;76.94;101529.78;5052397;28;20048;-66
2021/12/31 04:38:06;;;;;;;8.30;2.60;;;;;;;13.23;77.34;101524.66;5050732;28;20036;-66
2021/12/31 04:40:32;;;;;;;9.73;2.33;;;;;;;13.35;76.53;101529.78;5051185;28;20398;-66
2021/12/31 04:42:59;;;;;;;8.45;2.38;;;;;;;13.25;77.33;101528.00;5051164;28;20037;-66
2021/12/31 04:45:26;;;;;;;10.73;2.88;;;;;;;13.18;77.69;101526.13;5051102;28;20387;-66
2021/12/31 04:47:53;;;;;;;11.43;2.50;;;;;;;13.13;77.84;101531.06;5051300;28;20053;-65
2021/12/31 04:50:19;;;;;;;7.32;2.28;;;;;;;13.23;76.55;101529.16;5051058;28;20404;-66
2021/12/31 04:52:46;;;;;;;8.57;2.47;;;;;;;13.17;77.53;101522.63;5052118;28;20575;-66
2021/12/31 04:55:13;;;;;;;10.80;2.40;;;;;;;13.01;78.10;101528.63;5034461;28;20041;-66
2021/12/31 04:57:42;;;;;;;10.60;2.80;;;;;;;12.99;78.45;101524.44;5052389;28;20041;-66
2021/12/31 05:00:10;;;;;;;9.55;2.30;;;;;;;12.95;79.00;101517.72;5050748;28;20041;-66
2021/12/31 05:02:37;;;;;;;9.88;2.38;;;;;;;12.89;79.27;101519.16;5052014;28;20040;-66
2021/12/31 05:05:04;;;;;;;8.35;2.40;;;;;;;12.87;79.21;101523.81;5049998;28;20122;-66
2021/12/31 05:07:31;;;;;;;10.05;2.80;;;;;;;12.87;79.61;101523.81;5034335;28;20460;-66
2021/12/31 05:09:57;;;;;;;9.60;2.70;;;;;;;12.83;79.67;101517.94;5034234;28;20051;-65
2021/12/31 05:12:28;;;;;;;12.10;3.40;;;;;;;12.84;79.77;101524.09;5054700;28;20060;-66
2021/12/31 05:14:55;;;;;;;10.00;2.63;;;;;;;12.80;79.98;101522.72;5055736;28;20033;-66
2021/12/31 05:17:22;;;;;;;9.73;3.03;;;;;;;12.82;79.50;101528.72;5055756;28;20048;-68
2021/12/31 05:19:49;;;;;;;11.25;2.90;;;;;;;12.83;79.58;101538.41;5054387;28;20037;-67
2021/12/31 05:22:16;;;;;;;14.57;3.22;;;;;;;12.79;80.29;101524.56;5055813;28;20045;-67
2021/12/31 05:24:43;;;;;;;11.02;2.92;;;;;;;12.93;78.13;101520.53;5055218;28;20413;-67
2021/12/31 05:27:09;;;;;;;11.68;3.05;;;;;;;12.82;79.47;101531.41;5055657;28;20556;-67
2021/12/31 05:29:36;;;;;;;10.80;2.88;;;;;;;12.86;79.38;101528.31;5055401;28;20063;-67
2021/12/31 05:32:04;;;;;;;9.40;2.60;;;;;;;12.83;79.64;101520.59;5052536;28;20045;-67
2021/12/31 05:34:31;;;;;;;14.68;2.67;;;;;;;12.87;79.08;101521.16;5055282;28;20041;-67
2021/12/31 05:36:57;;;;;;;7.75;2.50;;;;;;;12.85;79.19;101521.28;5055462;28;20049;-67
2021/12/31 05:39:25;;;;;;;9.38;2.85;;;;;;;12.89;79.46;101511.16;5055268;28;20127;-67
2021/12/31 05:41:53;;;;;;;9.73;2.55;;;;;;;12.76;79.75;101510.72;5054091;28;20045;-67
2021/12/31 05:44:21;;;;;;;8.95;2.90;;;;;;;12.76;80.19;101510.72;5037906;28;20041;-67
2021/12/31 05:46:50;;;;;;;8.60;2.70;;;;;;;12.67;80.58;101521.25;5051440;28;20504;-67
2021/12/31 05:49:17;;;;;;;10.98;2.70;;;;;;;12.72;79.55;101507.50;5054107;28;20571;-67
2021/12/31 05:51:43;;;;;;;7.82;2.53;;;;;;;12.64;80.09;101518.91;5090333;28;20040;-67
2021/12/31 05:54:10;;;;;;;13.90;2.75;;;;;;;12.64;80.27;101508.25;5089370;28;20055;-67
2021/12/31 05:56:37;;;;;;;11.98;2.75;;;;;;;12.52;80.92;101508.63;5055072;28;20037;-67
2021/12/31 05:59:04;;;;;;;9.38;2.40;;;;;;;12.47;80.99;101501.88;5053667;28;20061;-67
2021/12/31 06:01:30;;;;;;;10.00;2.72;;;;;;;12.43;81.47;101495.19;5054432;28;20044;-67
2021/12/31 06:03:57;;;;;;;10.00;2.60;;;;;;;12.42;81.48;101498.00;5051970;28;20041;-66
2021/12/31 06:06:24;;;;;;;7.40;2.50;;;;;;;12.45;81.39;101505.69;5045534;28;20095;-67
2021/12/31 06:08:51;;;;;;;9.95;2.83;;;;;;;12.57;80.53;101508.97;5037124;28;20049;-67
2021/12/31 06:11:19;;;;;;;8.27;2.58;;;;;;;12.52;80.71;101509.44;5053306;28;20045;-66
2021/12/31 06:13:49;;;;;;;11.38;2.75;;;;;;;12.52;80.83;101503.28;5053465;28;20052;-67
2021/12/31 06:16:16;;;;;;;9.70;2.80;;;;;;;12.47;81.66;101499.22;5021061;28;20041;-67
2021/12/31 06:18:43;;;;;;;11.82;2.80;;;;;;;12.58;80.22;101503.50;5053624;28;20052;-67
2021/12/31 06:21:11;;;;;;;10.27;2.72;;;;;;;12.53;80.27;101511.09;5054363;28;20520;-67
2021/12/31 06:23:38;;;;;;;7.85;2.80;;;;;;;12.63;79.42;101521.72;5054285;28;20099;-66
2021/12/31 06:26:25;;;;;;;9.90;2.92;;;;;;;12.73;79.04;101517.16;5053087;28;20044;-67
2021/12/31 06:28:51;;;;;;;12.68;3.13;;;;;;;12.82;78.84;101515.41;5054247;28;20658;-67
2021/12/31 06:31:18;;;;;;;8.63;2.95;;;;;;;12.71;79.12;101515.63;5053314;28;20498;-67
2021/12/31 06:33:45;;;;;;;9.48;3.00;;;;;;;12.56;80.01;101518.78;5050957;28;20049;-67
2021/12/31 06:36:12;;;;;;;9.50;3.00;;;;;;;12.53;80.24;101518.25;5052577;28;20124;-67
2021/12/31 06:38:38;;;;;;;8.73;3.38;;;;;;;12.63;79.16;101517.22;5052627;28;20053;-66
2021/12/31 06:41:05;;;;;;;7.95;2.88;;;;;;;12.54;79.66;101520.78;5035766;28;20045;-67
2021/12/31 06:43:32;;;;;;;11.50;3.28;;;;;;;12.58;80.21;101527.47;5036283;28;20052;-67
2021/12/31 06:45:58;;;;;;;11.65;3.50;;;;;;;12.63;79.01;101530.53;5053861;28;20099;-67
2021/12/31 06:48:25;;;;;;;13.93;3.58;;;;;;;12.58;79.24;101534.63;5053988;28;20040;-67
2021/12/31 06:50:52;;;;;;;9.65;3.30;;;;;;;12.60;79.25;101522.81;5052973;28;20045;-67
2021/12/31 06:53:19;;;;;;;13.30;3.65;;;;;;;12.49;80.06;101502.56;5036326;28;20095;-67
2021/12/31 06:55:45;;;;;;;12.27;3.42;;;;;;;12.43;80.64;101495.19;5053594;28;20037;-67
2021/12/31 06:58:12;;;;;;;9.50;3.58;;;;;;;12.47;79.79;101491.25;5052608;28;20048;-67
2021/12/31 07:00:39;;;;;;;12.75;3.55;;;;;;;12.44;79.73;101496.03;5035843;28;20048;-67
2021/12/31 07:03:08;;;;;;;11.55;3.30;;;;;;;12.36;80.54;101501.25;5052329;28;20402;-67
2021/12/31 07:05:35;;;;;;;12.95;3.50;;;;;;;12.28;80.62;101502.00;5051677;28;20052;-67
2021/12/31 07:08:03;;;;;;;16.08;4.22;;;;;;;12.22;81.06;101503.41;5035887;28;20444;-67
2021/12/31 07:10:29;;;;;;;8.55;3.45;;;;;;;12.15;80.75;101496.16;5053444;28;20049;-67
2021/12/31 07:12:59;;;;;;;10.57;3.75;;;;;;;12.09;80.98;101508.22;5052552;28;20044;-67
2021/12/31 07:15:26;;;;;;;10.07;3.40;;;;;;;12.12;80.23;101515.09;5053418;28;20553;-66
2021/12/31 07:17:53;;;;;;;9.70;3.40;;;;;;;12.12;80.40;101515.91;5053399;28;20051;-67
2021/12/31 07:20:20;;;;;;;11.50;3.60;;;;;;;11.99;80.98;101524.22;5052151;28;20041;-67
2021/12/31 07:22:49;;;;;;;11.63;3.53;;;;;;;12.06;80.69;101520.00;5052027;28;20041;-67
2021/12/31 07:25:16;;;;;;;11.32;3.33;;;;;;;12.09;80.62;101517.03;5051597;28;20136;-67
2021/12/31 07:27:42;;;;;;;10.35;3.30;;;;;;;12.05;80.65;101530.78;5035543;28;20379;-66
2021/12/31 07:30:10;;;;;;;7.72;3.28;;;;;;;12.00;80.50;101531.19;5034063;28;20041;-67
2021/12/31 07:32:37;;;;;;;10.77;3.17;;;;;;;11.89;81.23;101521.53;5053060;28;20091;-67
2021/12/31 07:35:05;;;;;;;10.50;2.80;;;;;;;11.81;81.13;101525.91;5068079;28;20496;-67
2021/12/31 07:37:32;;;;;;;11.02;3.65;;;;;;;11.93;81.07;101526.59;5052874;28;20099;-67
2021/12/31 07:40:03;;;;;;;10.90;3.30;;;;;;;11.95;81.09;101521.97;5051666;28;20049;-67
2021/12/31 07:42:30;;;;;;;7.60;3.47;;;;;;;11.93;81.06;101524.78;5052987;28;20472;-67
2021/12/31 07:44:57;;;;;;;8.35;3.13;;;;;;;11.83;81.68;101514.13;5051749;28;20041;-67
2021/12/31 07:47:24;;;;;;;10.88;3.50;;;;;;;11.81;81.76;101523.25;5048128;28;20174;-67
2021/12/31 07:49:50;;;;;;;10.02;3.42;;;;;;;11.89;81.01;101526.00;5052248;28;20045;-67
2021/12/31 07:52:17;;;;;;;10.82;3.40;;;;;;;11.80;81.52;101522.38;5051627;28;20098;-67
2021/12/31 07:54:44;;;;;;;9.65;3.60;;;;;;;11.84;81.19;101528.25;5052786;28;20041;-67
2021/12/31 07:57:11;;;;;;;10.15;3.40;;;;;;;11.86;81.49;101534.25;5052585;28;20067;-67
2021/12/31 07:59:37;;;;;;;8.93;3.50;;;;;;;11.93;81.27;101532.75;5051450;28;20041;-67
2021/12/31 08:02:04;;;;;;;9.50;3.50;;;;;;;11.86;81.24;101524.50;5056229;28;20037;-66
2021/12/31 08:04:31;;;;;;;10.45;3.38;;;;;;;11.75;81.78;101527.31;5003188;28;20816;-67
2021/12/31 08:06:58;;;;;;;13.75;3.92;;;;;;;11.75;81.28;101529.13;5052707;28;20048;-66
2021/12/31 08:09:25;;;;;;;8.48;3.42;;;;;;;11.84;80.82;101545.06;5042317;28;20052;-67
2021/12/31 08:11:51;;;;;;;9.98;3.83;;;;;;;11.74;81.90;101536.25;5052583;28;20041;-67
2021/12/31 08:14:18;;;;;;;11.38;3.90;;;;;;;11.83;81.17;101527.44;5035200;28;20037;-67
2021/12/31 08:16:45;;;;;;;15.00;4.38;;;;;;;11.81;81.35;101539.19;5051832;28;20405;-67
2021/12/31 08:19:11;;;;;;;10.00;3.83;;;;;;;11.76;82.05;101552.91;5051210;28;20040;-67
2021/12/31 08:21:38;;;;;;;11.40;3.78;;;;;;;11.84;81.55;101544.22;5051383;28;20448;-67
2021/12/31 08:24:05;;;;;;;10.65;4.28;;;;;;;11.86;81.33;101545.75;5018343;28;20053;-66
2021/12/31 08:26:32;;;;;;;13.07;3.85;;;;;;;11.89;81.38;101544.63;5050990;28;20037;-66
2021/12/31 08:28:59;;;;;;;7.72;3.15;;;;;;;11.84;81.39;101539.75;5052142;28;20087;-66
2021/12/31 08:31:26;;;;;;;12.45;3.28;;;;;;;11.95;80.28;101541.44;5049100;28;20044;-66
2021/12/31 08:33:52;;;;;;;15.48;3.50;;;;;;;11.85;80.67;101543.25;5052229;28;20041;-66
2021/12/31 08:36:19;;;;;;;10.18;3.38;;;;;;;11.81;81.51;101542.69;5051283;28;20044;-66
2021/12/31 08:38:45;;;;;;;8.77;3.35;;;;;;;11.92;80.31;101543.56;5034601;28;20037;-66
2021/12/31 08:41:13;;;;;;;9.20;3.63;;;;;;;11.80;81.38;101537.50;5052138;28;20041;-66
2021/12/31 08:43:52;;;;;;;10.77;3.88;;;;;;;11.76;81.40;101539.59;5051053;28;20045;-66
2021/12/31 08:46:19;;;;;;;12.77;4.03;;;;;;;11.71;81.30;101541.84;5053912;28;20045;-66
2021/12/31 08:48:46;;;;;;;11.13;3.65;;;;;;;11.70;82.01;101540.19;5056229;28;20044;-67
2021/12/31 08:51:12;;;;;;;12.30;4.10;;;;;;;11.69;81.57;101543.81;5056048;28;20036;-67
2021/12/31 08:53:39;;;;;;;15.48;4.45;;;;;;;11.71;81.57;101547.16;5054972;28;20045;-66
2021/12/31 08:56:06;;;;;;;9.85;3.70;;;;;;;11.76;81.79;101557.38;5054603;28;20040;-66
2021/12/31 08:58:33;;;;;;;9.10;3.47;;;;;;;11.77;81.61;101554.59;5054356;28;20037;-66
2021/12/31 09:01:00;;;;;;;9.27;3.58;;;;;;;11.70;81.95;101556.97;5021963;28;20040;-66
2021/12/31 09:03:27;;;;;;;11.43;3.83;;;;;;;11.79;81.36;101560.59;5052716;28;20699;-66
2021/12/31 09:05:53;;;;;;;13.30;4.20;;;;;;;11.79;81.74;101562.41;5055540;28;20079;-66
2021/12/31 09:08:22;;;;;;;9.93;3.90;;;;;;;11.81;81.39;101547.16;5055771;28;20127;-66
2021/12/31 09:10:50;;;;;;;10.65;3.63;;;;;;;11.79;81.17;101549.97;5037888;28;20585;-67
2021/12/31 09:13:17;;;;;;;11.57;4.00;;;;;;;11.77;81.79;101553.72;5055491;28;20045;-65
2021/12/31 09:15:43;;;;;;;12.90;3.97;;;;;;;11.88;80.63;101566.91;5055697;28;20045;-67
2021/12/31 09:18:10;;;;;;;11.90;4.50;;;;;;;11.90;81.40;101570.28;5054453;28;20048;-68
2021/12/31 09:20:37;;;;;;;14.07;4.18;;;;;;;11.95;81.55;101564.50;5037742;28;20044;-68
2021/12/31 09:23:03;;;;;;;13.20;4.18;;;;;;;12.03;80.25;101562.81;5044883;28;20053;-68
2021/12/31 09:25:31;;;;;;;14.18;4.10;;;;;;;12.06;80.59;101567.84;5044605;28;20417;-68
2021/12/31 09:27:58;;;;;;;11.65;4.00;;;;;;;12.03;80.68;101564.66;5054200;28;20132;-67
2021/12/31 09:30:25;;;;;;;13.00;4.50;;;;;;;12.00;81.31;101552.47;5038128;28;20045;-67
2021/12/31 09:32:51;;;;;;;14.30;4.20;;;;;;;12.10;79.94;101552.47;5053895;28;20041;-67
2021/12/31 09:35:18;;;;;;;13.98;3.70;;;;;;;12.12;80.07;101547.81;5052219;28;20044;-68
2021/12/31 09:37:45;;;;;;;12.52;4.57;;;;;;;12.09;80.40;101551.59;5055096;28;20047;-67
2021/12/31 09:40:15;;;;;;;10.82;4.28;;;;;;;12.21;79.25;101549.63;5053778;28;20041;-67
2021/12/31 09:42:46;;;;;;;11.80;4.28;;;;;;;12.14;80.13;101553.00;5053935;28;20049;-68
2021/12/31 09:45:15;;;;;;;11.40;4.20;;;;;;;12.07;80.74;101556.22;5053859;28;20064;-67
2021/12/31 09:47:43;;;;;;;20.80;7.25;;;;;;;12.01;81.22;101559.47;5052312;28;20041;-67
2021/12/31 09:50:10;;;;;;;10.70;4.22;;;;;;;12.02;81.18;101558.47;5052773;28;20048;-67
2021/12/31 09:52:37;;;;;;;10.23;4.00;;;;;;;12.08;81.19;101557.91;5045326;28;20212;-67
2021/12/31 09:55:07;;;;;;;9.68;3.92;;;;;;;12.04;80.43;101561.00;5033776;28;20560;-67
2021/12/31 09:57:33;;;;;;;10.45;4.13;;;;;;;12.05;79.64;101549.38;5041695;28;20037;-67
2021/12/31 10:00:03;;;;;;;10.07;3.83;;;;;;;12.09;80.76;101554.25;5053718;28;20049;-68
2021/12/31 10:02:33;;;;;;;12.85;3.97;;;;;;;12.11;81.22;101551.47;5034162;28;20506;-67
2021/12/31 10:05:03;;;;;;;10.18;4.00;;;;;;;12.23;80.53;101547.66;5032116;28;20049;-68
2021/12/31 10:07:30;;;;;;;21.20;4.10;;;;;;;12.27;80.69;101556.19;5042967;28;20565;-67
2021/12/31 10:10:16;;;;;;;9.05;3.55;;;;;;;12.41;79.97;101552.22;5054877;28;20053;-66
2021/12/31 10:15:25;;;;;;;9.50;3.53;;;;;;;12.48;79.76;101545.31;5172481;27;20365;-67
2021/12/31 10:17:53;;;;;;;10.70;3.78;;;;;;;12.56;79.02;101550.72;5108851;27;20099;-66
2021/12/31 10:20:21;;;;;;;10.43;3.72;;;;;;;12.62;79.03;101565.28;5144869;27;20125;-66
2021/12/31 10:22:48;;;;;;;8.90;3.58;;;;;;;12.60;79.20;101562.75;5173864;27;20049;-68
2021/12/31 10:25:17;;;;;;;9.88;3.60;;;;;;;12.62;79.70;101562.63;5139096;27;20509;-66
2021/12/31 10:27:45;;;;;;;8.55;3.28;;;;;;;12.65;79.57;101571.13;5153517;27;20069;-67
2021/12/31 10:30:12;;;;;;;10.88;4.00;;;;;;;12.72;78.81;101578.56;5150296;27;20042;-67
2021/12/31 10:32:42;;;;;;;9.73;3.83;;;;;;;12.74;79.15;101576.59;5136003;27;20058;-66
2021/12/31 10:35:18;;;;;;;12.43;3.95;;;;;;;12.77;78.72;101579.78;5152438;27;20039;-69
2021/12/31 10:40:30;;;;;;;13.20;3.85;;;;;;;13.10;77.57;101564.19;5131008;27;20371;-69
2021/12/31 10:43:21;;;;;;;10.45;3.63;;;;;;;13.07;76.97;101575.13;5129845;28;20067;-68
2021/12/31 10:46:07;;;;;;;11.85;3.83;;;;;;;13.13;76.48;101560.34;5110401;28;20127;-67
2021/12/31 10:48:50;;;;;;;13.23;3.70;;;;;;;13.12;77.50;101548.03;5109034;28;20089;-67
2021/12/31 10:51:19;;;;;;;12.65;3.90;;;;;;;13.03;77.09;101541.78;5109813;28;20047;-67
2021/12/31 10:53:52;;;;;;;13.75;3.92;;;;;;;12.91;77.13;101546.47;5122267;28;20431;-68
2021/12/31 10:56:18;;;;;;;13.98;4.28;;;;;;;12.90;78.03;101533.31;5130503;28;20446;-67
2021/12/31 10:58:57;;;;;;;14.13;3.78;;;;;;;12.93;77.61;101525.84;5129345;28;20039;-67
2021/12/31 11:01:24;;;;;;;10.48;3.90;;;;;;;12.90;78.22;101527.97;5112447;28;20500;-67
2021/12/31 11:03:52;;;;;;;11.32;3.97;;;;;;;12.94;78.20;101514.22;5128695;27;20071;-69
2021/12/31 11:06:22;;;;;;;12.13;3.67;;;;;;;12.85;78.08;101505.31;5128693;28;20039;-66
2021/12/31 11:08:51;;;;;;;8.85;3.60;;;;;;;12.75;78.36;101501.91;5129154;28;20059;-67
2021/12/31 11:11:19;;;;;;;10.60;3.30;;;;;;;12.76;78.49;101486.75;5112107;28;20083;-67
2021/12/31 11:13:47;;;;;;;8.63;3.25;;;;;;;12.71;78.25;101500.50;5128528;27;20032;-66
2021/12/31 11:16:14;;;;;;;9.27;3.42;;;;;;;12.74;78.07;101484.22;5128615;27;20047;-68
2021/12/31 11:18:43;;;;;;;12.13;3.42;;;;;;;12.82;77.78;101484.34;5130150;27;20043;-68
2021/12/31 11:21:11;;;;;;;9.57;3.40;;;;;;;12.77;78.13;101494.59;5112418;28;20047;-67
2021/12/31 11:23:37;;;;;;;10.77;3.33;;;;;;;13.11;75.91;101522.38;5130394;28;20040;-68
2021/12/31 11:26:06;;;;;;;6.85;3.15;;;;;;;13.08;75.73;101515.53;5129947;28;20088;-66
2021/12/31 11:28:38;;;;;;;8.13;3.03;;;;;;;12.97;76.20;101526.41;5129943;27;20036;-66
2021/12/31 11:31:23;;;;;;;7.72;3.10;;;;;;;12.95;76.47;101507.06;5127249;28;20122;-67
2021/12/31 11:36:38;;;;;;;10.27;3.22;;;;;;;12.90;76.44;101525.31;5090241;28;20350;-68